Time;durP1;ratioP1;P1;durP2;ratioP2;P2;SDS_P1;SDS_P2;PMS_P1;PMS_P2;Temp;Humidity;BMP_temperature;BMP_pressure;BME280_temperature;BME280_humidity;BME280_pressure;Samples;Min_cycle;Max_cycle;Signal;HPM_P1;HPM_P2
2022/05/08 00:00:43;;;;;;;12.90;10.75;;;;;;;7.56;100.00;93493.09;2090063;28;20520;-82
2022/05/08 00:01:44;;;;;;;15.60;13.18;;;;;;;7.39;100.00;93500.00;2089765;28;20025;-82
2022/05/08 00:02:45;;;;;;;59.55;35.60;;;;;;;7.17;100.00;93493.22;2089581;28;20397;-82
2022/05/08 00:03:46;;;;;;;16.20;13.65;;;;;;;7.10;100.00;93491.31;2098551;28;20024;-81
2022/05/08 00:04:51;;;;;;;40.33;24.98;;;;;;;7.29;100.00;93496.22;2105608;28;20020;-81
2022/05/08 00:05:52;;;;;;;58.85;34.78;;;;;;;7.23;100.00;93486.34;2099422;28;20381;-81
2022/05/08 00:06:53;;;;;;;50.67;32.42;;;;;;;7.06;100.00;93498.56;2098269;28;20032;-80
2022/05/08 00:07:54;;;;;;;62.30;39.58;;;;;;;6.96;100.00;93494.78;2106653;28;20487;-82
2022/05/08 00:08:55;;;;;;;57.58;37.20;;;;;;;6.92;100.00;93487.97;2123735;27;20046;-81
2022/05/08 00:09:56;;;;;;;43.08;27.25;;;;;;;7.06;100.00;93483.34;2114878;28;20023;-81
2022/05/08 00:10:57;;;;;;;16.25;13.35;;;;;;;7.18;100.00;93490.16;2106468;28;20019;-81
2022/05/08 00:11:58;;;;;;;24.80;18.85;;;;;;;6.95;100.00;93493.28;2098331;28;20025;-82
2022/05/08 00:12:59;;;;;;;25.63;18.98;;;;;;;6.95;100.00;93492.53;2105894;28;20390;-80
2022/05/08 00:14:00;;;;;;;22.00;17.25;;;;;;;6.90;100.00;93493.66;2097202;28;20036;-81
2022/05/08 00:15:01;;;;;;;21.75;15.35;;;;;;;6.94;100.00;93491.00;2108968;28;20077;-80
2022/05/08 00:16:03;;;;;;;13.63;11.93;;;;;;;7.06;100.00;93483.34;2106476;28;20020;-80
2022/05/08 00:17:04;;;;;;;12.95;11.45;;;;;;;6.96;100.00;93489.47;2098423;28;20021;-81
2022/05/08 00:18:06;;;;;;;12.23;10.93;;;;;;;7.05;100.00;93489.81;2106014;28;20028;-80
2022/05/08 00:19:07;;;;;;;11.77;10.60;;;;;;;7.04;100.00;93487.56;2098722;28;20028;-81
2022/05/08 00:20:08;;;;;;;12.25;10.73;;;;;;;6.96;100.00;93486.06;2109638;28;20058;-81
2022/05/08 00:21:09;;;;;;;12.60;11.27;;;;;;;7.01;100.00;93488.31;2113749;28;20111;-82
2022/05/08 00:22:11;;;;;;;12.48;10.45;;;;;;;7.01;100.00;93491.72;2109773;28;20081;-81
2022/05/08 00:23:12;;;;;;;11.13;10.02;;;;;;;7.19;100.00;93486.38;2106076;28;20063;-82
2022/05/08 00:24:13;;;;;;;12.15;10.98;;;;;;;7.26;100.00;93481.03;2098206;28;20021;-82
2022/05/08 00:25:14;;;;;;;11.23;9.95;;;;;;;7.24;100.00;93479.91;2098038;28;20021;-82
2022/05/08 00:26:18;;;;;;;12.00;10.38;;;;;;;7.08;100.00;93475.03;2096920;28;20032;-81
2022/05/08 00:27:19;;;;;;;10.45;9.48;;;;;;;7.16;100.00;93479.19;2096725;28;20028;-83
2022/05/08 00:28:20;;;;;;;11.38;10.23;;;;;;;7.03;100.00;93480.72;2098425;28;20035;-81
2022/05/08 00:29:21;;;;;;;11.70;10.52;;;;;;;7.02;100.00;93481.84;2106601;28;20039;-82
2022/05/08 00:30:22;;;;;;;11.55;10.35;;;;;;;7.03;100.00;93481.50;2113768;28;20578;-81
2022/05/08 00:31:24;;;;;;;11.45;10.25;;;;;;;7.02;100.00;93479.97;2102296;28;20025;-81
2022/05/08 00:32:25;;;;;;;10.13;9.23;;;;;;;7.01;100.00;93481.09;2102663;27;20048;-82
2022/05/08 00:33:26;;;;;;;10.77;9.70;;;;;;;7.10;100.00;93488.66;2110384;28;20475;-81
2022/05/08 00:34:27;;;;;;;10.93;9.75;;;;;;;7.04;100.00;93477.69;2110680;27;20016;-80
2022/05/08 00:35:27;;;;;;;11.98;9.98;;;;;;;7.01;100.00;93483.75;2115051;28;20131;-81
2022/05/08 00:36:28;;;;;;;10.55;9.65;;;;;;;7.04;100.00;93480.34;2106436;28;20028;-81
2022/05/08 00:37:29;;;;;;;12.45;9.68;;;;;;;7.12;100.00;93480.34;2093974;28;20024;-81
2022/05/08 00:38:30;;;;;;;11.18;9.82;;;;;;;7.18;100.00;93478.78;2101583;28;20020;-81
2022/05/08 00:39:32;;;;;;;10.95;9.93;;;;;;;7.10;100.00;93479.94;2119555;27;20019;-81
2022/05/08 00:40:35;;;;;;;11.57;10.30;;;;;;;7.15;100.00;93482.97;2117403;27;20482;-83
2022/05/08 00:41:36;;;;;;;10.73;9.68;;;;;;;7.14;100.00;93483.34;2102804;28;20119;-81
2022/05/08 00:42:37;;;;;;;11.65;9.85;;;;;;;7.16;100.00;93479.19;2098234;28;20480;-81
2022/05/08 00:43:40;;;;;;;10.93;9.85;;;;;;;7.15;100.00;93487.53;2115018;27;20383;-82
2022/05/08 00:44:41;;;;;;;11.05;9.95;;;;;;;7.07;100.00;93479.59;2123459;27;20054;-81
2022/05/08 00:45:42;;;;;;;11.25;10.25;;;;;;;7.20;100.00;93476.47;2106006;28;20679;-81
2022/05/08 00:46:50;;;;;;;10.95;9.93;;;;;;;7.47;100.00;93479.44;2089915;28;20024;-81
2022/05/08 00:47:51;;;;;;;10.48;9.52;;;;;;;7.52;100.00;93482.47;2106536;27;20536;-82
2022/05/08 00:48:52;;;;;;;11.27;10.23;;;;;;;7.50;100.00;93482.06;2106171;28;20024;-81
2022/05/08 00:49:53;;;;;;;11.13;9.43;;;;;;;7.49;100.00;93477.91;2114172;28;20035;-82
2022/05/08 00:50:54;;;;;;;10.90;9.88;;;;;;;7.47;100.00;93477.53;2114333;28;20027;-82
2022/05/08 00:51:55;;;;;;;10.55;9.52;;;;;;;7.42;100.00;93477.94;2107734;28;20442;-82
2022/05/08 00:52:57;;;;;;;10.57;9.57;;;;;;;7.53;100.00;93477.91;2121165;27;20100;-82
2022/05/08 00:54:01;;;;;;;11.23;10.10;;;;;;;7.42;100.00;93483.28;2122998;27;20034;-80
2022/05/08 00:55:04;;;;;;;11.30;10.15;;;;;;;7.38;100.00;93479.09;2106697;28;20519;-82
2022/05/08 00:56:08;;;;;;;10.70;9.80;;;;;;;7.41;100.00;93475.66;2090499;28;20025;-81
2022/05/08 00:57:10;;;;;;;10.43;9.43;;;;;;;7.43;100.00;93476.03;2098950;28;20020;-82
2022/05/08 00:58:11;;;;;;;10.50;9.50;;;;;;;7.34;100.00;93470.38;2098318;28;20023;-82
2022/05/08 00:59:12;;;;;;;10.60;9.63;;;;;;;7.33;100.00;93472.25;2106236;28;20051;-81
2022/05/08 01:00:14;;;;;;;10.48;9.52;;;;;;;7.40;100.00;93479.47;2090020;28;20059;-81
2022/05/08 01:01:15;;;;;;;10.20;9.20;;;;;;;7.39;100.00;93472.63;2089595;28;20246;-81
2022/05/08 01:02:17;;;;;;;11.45;10.02;;;;;;;7.48;100.00;93478.31;2108907;28;20023;-82
2022/05/08 01:03:18;;;;;;;11.35;9.80;;;;;;;7.57;100.00;93471.41;2106337;28;20054;-82
2022/05/08 01:04:19;;;;;;;11.27;10.05;;;;;;;7.56;100.00;93472.56;2106225;28;20385;-81
2022/05/08 01:05:20;;;;;;;11.02;10.02;;;;;;;7.51;100.00;93470.31;2097062;28;20036;-82
2022/05/08 01:06:22;;;;;;;11.18;10.18;;;;;;;7.36;100.00;93470.75;2100348;28;20027;-81
2022/05/08 01:07:26;;;;;;;10.68;9.75;;;;;;;7.45;100.00;93471.09;2098137;28;20021;-80
2022/05/08 01:08:27;;;;;;;11.27;10.00;;;;;;;7.49;100.00;93469.16;2098501;28;20844;-82
2022/05/08 01:09:28;;;;;;;10.82;9.82;;;;;;;7.44;100.00;93472.25;2114693;28;20027;-81
2022/05/08 01:10:29;;;;;;;13.25;10.38;;;;;;;7.54;100.00;93466.09;2100109;28;20023;-82
2022/05/08 01:11:30;;;;;;;11.35;10.30;;;;;;;7.54;100.00;93466.84;2098436;28;20161;-82
2022/05/08 01:12:32;;;;;;;11.35;10.10;;;;;;;7.62;100.00;93469.50;2095697;28;20021;-81
2022/05/08 01:13:34;;;;;;;11.27;10.27;;;;;;;7.77;100.00;93462.94;2093273;28;20048;-81
2022/05/08 01:14:35;;;;;;;11.05;10.05;;;;;;;7.67;100.00;93471.75;2093196;28;20037;-81
2022/05/08 01:15:42;;;;;;;12.65;10.50;;;;;;;7.68;100.00;93467.94;2097918;28;20032;-81
2022/05/08 01:16:42;;;;;;;12.30;10.18;;;;;;;7.63;100.00;93463.78;2098340;28;20103;-81
2022/05/08 01:17:44;;;;;;;11.65;10.55;;;;;;;7.62;100.00;93469.50;2097448;28;20052;-81
2022/05/08 01:18:48;;;;;;;11.75;10.60;;;;;;;7.61;100.00;93468.75;2106141;28;20028;-81
2022/05/08 01:19:49;;;;;;;11.35;10.20;;;;;;;7.70;100.00;93470.97;2090116;28;20070;-81
2022/05/08 01:20:51;;;;;;;11.65;10.57;;;;;;;7.72;100.00;93471.34;2081066;28;20025;-81
2022/05/08 01:21:52;;;;;;;11.57;10.65;;;;;;;7.76;100.00;93466.75;2100508;28;20447;-82
2022/05/08 01:22:55;;;;;;;12.07;10.82;;;;;;;7.68;100.00;93474.03;2091055;28;20029;-81
2022/05/08 01:23:55;;;;;;;12.52;10.63;;;;;;;7.72;100.00;93463.34;2098062;28;20032;-81
2022/05/08 01:24:59;;;;;;;11.15;10.00;;;;;;;7.87;100.00;93470.13;2106203;28;20020;-81
2022/05/08 01:26:00;;;;;;;11.00;10.02;;;;;;;7.84;100.00;93470.91;2096786;28;20407;-81
2022/05/08 01:27:01;;;;;;;12.02;10.98;;;;;;;7.69;100.00;93475.53;2089138;28;20029;-82
2022/05/08 01:28:03;;;;;;;11.38;10.35;;;;;;;7.71;100.00;93470.59;2097485;28;20024;-82
2022/05/08 01:29:04;;;;;;;12.13;9.85;;;;;;;7.69;100.00;93469.47;2089706;28;20047;-81
2022/05/08 01:30:06;;;;;;;11.68;10.57;;;;;;;7.88;100.00;93465.56;2097675;28;20032;-82
2022/05/08 01:31:07;;;;;;;13.40;11.02;;;;;;;7.88;100.00;93461.00;2097878;28;20116;-82
2022/05/08 01:32:08;;;;;;;10.98;10.00;;;;;;;7.86;100.00;93468.63;2097801;28;20070;-82
2022/05/08 01:33:10;;;;;;;10.77;9.63;;;;;;;7.95;100.00;93458.28;2098245;28;20028;-81
2022/05/08 01:34:11;;;;;;;11.73;9.98;;;;;;;7.88;100.00;93466.31;2106211;28;20020;-81
2022/05/08 01:35:12;;;;;;;10.52;9.52;;;;;;;7.86;100.00;93460.63;2106199;28;20555;-80
2022/05/08 01:36:12;;;;;;;11.25;10.25;;;;;;;7.82;100.00;93458.00;2097690;28;20056;-82
2022/05/08 01:37:13;;;;;;;11.88;10.60;;;;;;;7.84;100.00;93462.91;2106159;28;20020;-82
2022/05/08 01:38:16;;;;;;;12.05;10.85;;;;;;;7.96;100.00;93461.72;2105321;28;20032;-82
2022/05/08 01:39:17;;;;;;;11.35;10.25;;;;;;;7.91;100.00;93460.22;2097982;28;20028;-83
2022/05/08 01:40:18;;;;;;;11.20;10.10;;;;;;;8.15;100.00;93453.19;2097870;28;20557;-82
2022/05/08 01:41:19;;;;;;;11.13;10.05;;;;;;;8.25;100.00;93457.72;2106290;28;20692;-82
2022/05/08 01:42:20;;;;;;;12.43;10.20;;;;;;;8.27;100.00;93458.06;2106003;28;20027;-82
2022/05/08 01:43:21;;;;;;;10.82;9.82;;;;;;;8.16;100.00;93453.97;2106217;28;20059;-81
2022/05/08 01:44:24;;;;;;;10.75;9.75;;;;;;;8.08;100.00;93458.59;2106236;28;20012;-82
2022/05/08 01:45:25;;;;;;;12.00;9.85;;;;;;;8.02;100.00;93452.16;2097880;28;20024;-81
2022/05/08 01:46:26;;;;;;;11.38;10.23;;;;;;;7.93;100.00;93463.22;2097841;28;20692;-82
2022/05/08 01:48:55;;;;;;;11.63;10.40;;;;;;;7.78;100.00;93456.50;2099865;28;20472;-81
2022/05/08 01:49:56;;;;;;;11.32;10.13;;;;;;;7.71;100.00;93467.16;2101166;28;20032;-81
2022/05/08 01:50:59;;;;;;;11.40;10.30;;;;;;;7.70;100.00;93463.75;2104993;28;20035;-81
2022/05/08 01:52:00;;;;;;;12.05;10.93;;;;;;;7.66;100.00;93459.59;2090000;28;20473;-81
2022/05/08 01:53:01;;;;;;;10.27;9.40;;;;;;;7.72;100.00;93463.34;2097759;28;20024;-81
2022/05/08 01:54:02;;;;;;;11.40;10.18;;;;;;;7.67;100.00;93461.09;2097496;28;20112;-80
2022/05/08 01:55:03;;;;;;;11.40;10.30;;;;;;;7.63;100.00;93461.13;2097941;28;20102;-81
2022/05/08 01:56:07;;;;;;;11.63;10.43;;;;;;;7.64;100.00;93462.66;2097865;28;20100;-82
2022/05/08 01:57:08;;;;;;;11.75;10.50;;;;;;;7.56;100.00;93453.94;2098152;28;20028;-81
2022/05/08 01:58:09;;;;;;;11.07;10.07;;;;;;;7.57;100.00;93454.69;2097788;28;20059;-82
2022/05/08 01:59:11;;;;;;;11.27;9.75;;;;;;;7.52;100.00;93461.19;2097475;28;20024;-82
2022/05/08 02:00:13;;;;;;;11.00;10.10;;;;;;;7.51;100.00;93458.91;2089747;28;20469;-80
2022/05/08 02:01:14;;;;;;;11.20;10.25;;;;;;;7.40;100.00;93458.94;2097505;28;20598;-81
2022/05/08 02:02:16;;;;;;;12.15;10.85;;;;;;;7.42;100.00;93462.00;2096929;28;20037;-81
2022/05/08 02:03:19;;;;;;;10.48;9.45;;;;;;;7.46;100.00;93461.97;2097720;28;20024;-82
2022/05/08 02:04:20;;;;;;;11.00;10.00;;;;;;;7.35;100.00;93459.34;2089220;28;20017;-80
2022/05/08 02:05:22;;;;;;;10.77;9.88;;;;;;;7.37;100.00;93462.38;2089341;28;20025;-82
2022/05/08 02:06:23;;;;;;;10.82;9.73;;;;;;;7.40;100.00;93458.94;2106205;28;20070;-82
2022/05/08 02:07:24;;;;;;;11.20;10.10;;;;;;;7.39;100.00;93460.09;2105998;28;20472;-81
2022/05/08 02:08:25;;;;;;;10.32;9.35;;;;;;;7.42;100.00;93454.00;2106059;28;20059;-81
2022/05/08 02:09:26;;;;;;;11.57;10.48;;;;;;;7.32;100.00;93460.88;2097566;28;20547;-81
2022/05/08 02:10:28;;;;;;;11.45;10.27;;;;;;;7.22;100.00;93459.03;2081229;28;20091;-80
2022/05/08 02:13:09;;;;;;;;;;;;;;;7.43;100.00;93462.75;2148686;27;20112;-81
2022/05/08 02:14:10;;;;;;;10.20;9.05;;;;;;;7.31;100.00;93467.34;2128962;27;19968;-81
2022/05/08 02:15:13;;;;;;;10.68;9.68;;;;;;;7.28;100.00;93464.69;2113312;28;20073;-82
2022/05/08 02:16:14;;;;;;;10.77;9.57;;;;;;;7.19;100.00;93464.34;2121492;28;20030;-81
2022/05/08 02:17:15;;;;;;;10.68;9.68;;;;;;;7.22;100.00;93459.03;2121742;28;20031;-81
2022/05/08 02:18:16;;;;;;;10.55;9.63;;;;;;;7.07;100.00;93465.53;2113136;28;20454;-82
2022/05/08 02:19:18;;;;;;;10.80;9.80;;;;;;;7.03;100.00;93470.09;2113402;27;20024;-81
2022/05/08 02:20:19;;;;;;;10.82;9.82;;;;;;;6.94;100.00;93459.88;2136609;27;20019;-81
2022/05/08 02:21:20;;;;;;;10.25;9.35;;;;;;;6.97;100.00;93464.41;2130214;27;20670;-81
2022/05/08 02:22:21;;;;;;;11.18;10.10;;;;;;;6.99;100.00;93466.69;2121784;27;20546;-83
2022/05/08 02:23:22;;;;;;;10.68;9.68;;;;;;;6.96;100.00;93470.88;2121692;28;20019;-81
2022/05/08 02:24:23;;;;;;;11.27;10.27;;;;;;;6.93;100.00;93466.31;2113221;28;20023;-81
2022/05/08 02:25:24;;;;;;;12.32;9.77;;;;;;;6.97;100.00;93475.03;2128260;27;20033;-81
2022/05/08 02:26:25;;;;;;;10.88;9.77;;;;;;;6.81;100.00;93472.03;2120789;27;20020;-81
2022/05/08 02:27:33;;;;;;;10.95;10.02;;;;;;;6.85;100.00;93474.69;2121738;27;20026;-81
2022/05/08 02:28:34;;;;;;;11.20;10.20;;;;;;;6.81;100.00;93475.47;2121907;28;20019;-80
2022/05/08 02:29:35;;;;;;;11.10;10.15;;;;;;;6.67;100.00;93472.03;2121621;28;20031;-81
2022/05/08 02:30:36;;;;;;;11.10;10.15;;;;;;;6.68;100.00;93474.34;2113848;27;20019;-81
2022/05/08 02:31:37;;;;;;;11.55;10.45;;;;;;;6.71;100.00;93467.50;2121418;28;20027;-81
2022/05/08 02:32:39;;;;;;;11.77;10.68;;;;;;;6.77;100.00;93458.75;2113016;28;20043;-82
2022/05/08 02:33:40;;;;;;;11.88;10.77;;;;;;;6.93;100.00;93465.56;2121859;27;20023;-82
2022/05/08 02:34:41;;;;;;;11.60;10.50;;;;;;;6.78;100.00;93470.91;2121739;27;20024;-81
2022/05/08 02:35:42;;;;;;;11.48;10.38;;;;;;;6.66;100.00;93471.28;2113180;27;20061;-81
2022/05/08 02:36:43;;;;;;;10.70;9.80;;;;;;;6.64;100.00;93475.50;2130234;27;20015;-81
2022/05/08 02:37:44;;;;;;;11.88;10.43;;;;;;;6.83;100.00;93472.41;2129736;27;20031;-82
2022/05/08 02:38:45;;;;;;;12.15;10.95;;;;;;;6.82;100.00;93473.56;2112826;27;20546;-81
2022/05/08 02:39:46;;;;;;;12.75;11.55;;;;;;;6.62;100.00;93475.84;2113197;27;20076;-81
2022/05/08 02:40:47;;;;;;;11.65;10.48;;;;;;;6.55;100.00;93471.31;2112861;28;20427;-80
2022/05/08 02:41:48;;;;;;;11.35;10.30;;;;;;;6.64;100.00;93472.84;2105245;28;20115;-80
2022/05/08 02:42:49;;;;;;;11.63;10.52;;;;;;;6.64;100.00;93475.50;2121510;27;20090;-80
2022/05/08 02:43:50;;;;;;;11.65;10.48;;;;;;;6.79;100.00;93469.00;2121485;27;20030;-81
2022/05/08 02:44:51;;;;;;;11.27;10.18;;;;;;;6.67;100.00;93480.81;2121640;27;20089;-81
2022/05/08 02:45:52;;;;;;;12.30;10.95;;;;;;;6.51;100.00;93470.56;2121359;27;20019;-81
2022/05/08 02:46:53;;;;;;;11.07;9.82;;;;;;;6.49;100.00;93470.16;2121704;27;20023;-81
2022/05/08 02:47:54;;;;;;;10.60;9.65;;;;;;;6.39;100.00;93467.53;2121594;27;20609;-81
2022/05/08 02:48:55;;;;;;;11.73;10.73;;;;;;;6.49;100.00;93464.09;2130142;27;20022;-82
2022/05/08 02:49:55;;;;;;;11.15;10.15;;;;;;;6.37;100.00;93467.16;2120863;28;20019;-80
2022/05/08 02:50:58;;;;;;;11.57;10.57;;;;;;;6.29;100.00;93469.81;2112852;28;20130;-82
2022/05/08 02:51:59;;;;;;;11.18;9.77;;;;;;;6.34;100.00;93471.31;2113357;28;20664;-81
2022/05/08 02:52:59;;;;;;;11.45;10.15;;;;;;;6.35;100.00;93464.88;2121324;27;20027;-82
2022/05/08 02:54:00;;;;;;;10.23;9.32;;;;;;;6.21;100.00;93467.53;2121561;28;20117;-82
2022/05/08 02:58:32;;;;;;;11.40;10.30;;;;;;;6.25;100.00;93470.94;2113097;28;20016;-82
2022/05/08 02:59:01;;;;;;;10.32;9.40;;;;;;;6.36;100.00;93466.38;2133885;27;20025;-82
2022/05/08 03:00:05;;;;;;;10.13;9.13;;;;;;;6.33;100.00;93469.81;2121360;27;20114;-80
2022/05/08 03:01:06;;;;;;;10.68;9.57;;;;;;;6.45;100.00;93466.00;2112960;27;20403;-82
2022/05/08 03:02:07;;;;;;;10.73;9.73;;;;;;;6.43;100.00;93468.28;2103678;28;20024;-81
2022/05/08 03:03:09;;;;;;;10.10;9.30;;;;;;;6.38;100.00;93466.78;2113025;27;20111;-82
2022/05/08 03:04:10;;;;;;;10.52;9.63;;;;;;;6.20;100.00;93469.44;2118128;27;20046;-82
2022/05/08 03:05:12;;;;;;;10.32;9.45;;;;;;;6.19;100.00;93475.88;2112915;27;20053;-81
2022/05/08 03:06:13;;;;;;;10.35;9.27;;;;;;;6.16;100.00;93466.00;2121317;27;20558;-83
2022/05/08 03:07:14;;;;;;;10.45;9.40;;;;;;;6.17;100.00;93474.72;2121353;28;20033;-82
2022/05/08 03:08:17;;;;;;;10.52;9.63;;;;;;;6.24;100.00;93474.75;2113005;28;20027;-82
2022/05/08 03:09:18;;;;;;;10.25;9.25;;;;;;;6.18;100.00;93469.03;2121546;27;20032;-82
2022/05/08 03:10:19;;;;;;;9.98;9.02;;;;;;;6.16;100.00;93473.22;2121455;27;20019;-81
2022/05/08 03:11:26;;;;;;;10.07;9.07;;;;;;;6.23;100.00;93479.28;2121298;27;20051;-82
2022/05/08 03:12:27;;;;;;;9.88;8.98;;;;;;;6.11;100.00;93465.63;2119655;28;20069;-80
2022/05/08 03:13:29;;;;;;;10.23;9.23;;;;;;;6.14;100.00;93467.50;2120002;28;20472;-82
2022/05/08 03:14:29;;;;;;;10.48;9.55;;;;;;;6.38;100.00;93472.09;2120697;28;20106;-81
2022/05/08 03:15:31;;;;;;;10.25;9.20;;;;;;;6.20;100.00;93464.13;2112702;28;20019;-81
2022/05/08 03:16:32;;;;;;;10.45;9.45;;;;;;;6.15;100.00;93469.06;2112711;28;20463;-83
2022/05/08 03:17:33;;;;;;;10.52;9.43;;;;;;;6.01;100.00;93464.47;2104549;28;20024;-81
2022/05/08 03:18:38;;;;;;;10.05;9.15;;;;;;;5.90;100.00;93471.63;2121104;28;20076;-81
2022/05/08 03:19:39;;;;;;;10.07;9.07;;;;;;;5.89;100.00;93462.16;2105052;28;20031;-82
2022/05/08 03:20:40;;;;;;;10.77;9.75;;;;;;;5.84;100.00;93459.88;2112800;28;20020;-81
2022/05/08 03:21:42;;;;;;;10.10;9.20;;;;;;;5.84;100.00;93465.94;2112608;28;20026;-82
2022/05/08 03:22:43;;;;;;;10.68;9.63;;;;;;;5.93;100.00;93461.06;2101503;28;20484;-82
2022/05/08 03:23:46;;;;;;;9.85;8.85;;;;;;;6.01;100.00;93459.94;2120238;28;20023;-81
2022/05/08 03:24:47;;;;;;;10.48;9.48;;;;;;;5.81;100.00;93456.09;2123467;27;20083;-82
2022/05/08 03:25:48;;;;;;;10.18;9.27;;;;;;;5.80;100.00;93460.63;2106669;28;20020;-82
2022/05/08 03:26:49;;;;;;;10.35;8.90;;;;;;;5.86;100.00;93454.94;2098379;28;20024;-81
2022/05/08 03:27:49;;;;;;;10.38;9.27;;;;;;;5.77;100.00;93457.97;2104792;28;20020;-81
2022/05/08 03:28:51;;;;;;;10.27;9.38;;;;;;;5.82;100.00;93461.00;2107076;28;20042;-81
2022/05/08 03:29:52;;;;;;;10.23;9.18;;;;;;;5.82;100.00;93462.91;2098942;28;20496;-80
2022/05/08 03:30:53;;;;;;;9.82;8.95;;;;;;;5.97;100.00;93455.75;2098578;28;20028;-82
2022/05/08 03:31:54;;;;;;;10.55;8.98;;;;;;;5.79;100.00;93456.47;2115495;28;20047;-81
2022/05/08 03:32:57;;;;;;;9.63;8.73;;;;;;;5.73;100.00;93465.91;2115419;28;20031;-81
2022/05/08 03:33:58;;;;;;;10.23;9.40;;;;;;;5.69;100.00;93465.16;2115495;28;20046;-82
2022/05/08 03:35:00;;;;;;;10.85;9.43;;;;;;;5.66;100.00;93460.59;2114100;27;20030;-80
2022/05/08 03:36:02;;;;;;;9.93;9.02;;;;;;;5.69;100.00;93467.03;2098789;28;20477;-82
2022/05/08 03:37:04;;;;;;;9.98;9.13;;;;;;;5.65;100.00;93453.78;2098959;28;20028;-81
2022/05/08 03:38:06;;;;;;;10.90;9.80;;;;;;;5.58;100.00;93468.94;2098151;28;20861;-81
2022/05/08 03:39:07;;;;;;;14.05;9.95;;;;;;;5.49;100.00;93464.72;2107209;28;20036;-83
2022/05/08 03:40:08;;;;;;;10.68;9.02;;;;;;;5.62;100.00;93469.66;2098837;28;20048;-81
2022/05/08 03:41:14;;;;;;;10.40;9.40;;;;;;;5.61;100.00;93460.97;2103408;28;20056;-82
2022/05/08 03:42:23;;;;;;;10.20;9.20;;;;;;;5.64;100.00;93456.81;2109127;27;20032;-81
2022/05/08 03:43:24;;;;;;;9.88;8.95;;;;;;;5.65;100.00;93468.94;2102047;28;20396;-80
2022/05/08 03:44:25;;;;;;;10.27;9.32;;;;;;;5.57;100.00;93462.84;2090420;28;20020;-82
2022/05/08 03:45:31;;;;;;;9.85;9.05;;;;;;;5.57;100.00;93462.84;2098600;28;20044;-82
2022/05/08 03:46:32;;;;;;;10.88;9.73;;;;;;;5.72;100.00;93459.09;2107685;28;20174;-81
2022/05/08 03:47:33;;;;;;;11.13;9.90;;;;;;;5.54;100.00;93464.34;2102324;28;20094;-81
2022/05/08 03:48:34;;;;;;;9.88;9.00;;;;;;;5.52;100.00;93466.63;2102104;28;20775;-81
2022/05/08 03:49:35;;;;;;;10.00;9.10;;;;;;;5.51;100.00;93467.75;2123408;27;20035;-82
2022/05/08 03:50:36;;;;;;;9.93;9.00;;;;;;;5.51;100.00;93470.41;2123439;27;20467;-81
2022/05/08 03:51:37;;;;;;;10.35;9.40;;;;;;;5.56;100.00;93472.69;2107042;28;20092;-82
2022/05/08 03:52:38;;;;;;;10.55;9.55;;;;;;;5.49;100.00;93469.28;2106769;28;20517;-81
2022/05/08 03:53:39;;;;;;;10.43;9.45;;;;;;;5.55;100.00;93476.47;2106646;27;20024;-82
2022/05/08 03:54:40;;;;;;;10.80;9.80;;;;;;;5.48;100.00;93470.38;2106913;28;20103;-82
2022/05/08 03:55:41;;;;;;;10.45;9.55;;;;;;;5.45;100.00;93471.91;2098492;28;20020;-82
2022/05/08 03:56:42;;;;;;;10.85;9.93;;;;;;;5.39;100.00;93467.34;2098628;28;20024;-82
2022/05/08 03:57:44;;;;;;;9.18;8.48;;;;;;;5.46;100.00;93468.13;2106975;28;20097;-81
2022/05/08 03:58:45;;;;;;;9.65;8.75;;;;;;;5.35;100.00;93472.63;2115192;28;20034;-82
2022/05/08 03:59:46;;;;;;;10.27;9.30;;;;;;;5.34;100.00;93459.75;2118533;27;20042;-82
2022/05/08 04:00:47;;;;;;;11.85;9.32;;;;;;;5.36;100.00;93471.50;2113242;28;20023;-81
2022/05/08 04:01:47;;;;;;;10.98;9.93;;;;;;;5.39;100.00;93468.09;2098104;28;20024;-81
2022/05/08 04:03:02;;;;;;;9.52;8.63;;;;;;;5.39;100.00;93469.97;2089952;28;20075;-82
2022/05/08 04:04:03;;;;;;;12.15;9.75;;;;;;;5.44;100.00;93467.72;2095903;28;20021;-81
2022/05/08 04:05:04;;;;;;;10.38;9.38;;;;;;;5.43;100.00;93471.50;2106963;28;20245;-82
2022/05/08 04:06:05;;;;;;;11.65;9.73;;;;;;;5.39;100.00;93470.75;2115069;28;20503;-81
2022/05/08 04:07:06;;;;;;;10.80;9.82;;;;;;;5.31;100.00;93471.84;2098314;28;20028;-81
2022/05/08 04:08:07;;;;;;;10.85;9.85;;;;;;;5.51;100.00;93469.66;2108044;28;20410;-80
2022/05/08 04:09:09;;;;;;;10.48;9.43;;;;;;;5.52;100.00;93465.84;2103410;28;20024;-82
2022/05/08 04:10:10;;;;;;;10.80;9.63;;;;;;;5.40;100.00;93474.94;2098571;28;20067;-82
2022/05/08 04:11:11;;;;;;;11.32;10.23;;;;;;;5.29;100.00;93466.91;2106566;28;20020;-82
2022/05/08 04:12:12;;;;;;;11.00;9.82;;;;;;;5.26;100.00;93469.56;2106316;28;20024;-80
2022/05/08 04:13:13;;;;;;;10.75;9.65;;;;;;;5.32;100.00;93468.06;2106794;28;20036;-81
2022/05/08 04:14:14;;;;;;;10.68;9.57;;;;;;;5.30;100.00;93470.31;2107939;28;20028;-82
2022/05/08 04:16:35;;;;;;;10.10;9.23;;;;;;;5.38;100.00;93469.22;2103571;28;20028;-81
2022/05/08 04:17:36;;;;;;;10.45;9.45;;;;;;;5.39;100.00;93475.28;2115192;28;20483;-81
2022/05/08 04:18:37;;;;;;;11.02;9.75;;;;;;;5.28;100.00;93468.06;2115175;28;20499;-83
2022/05/08 04:19:38;;;;;;;10.73;9.73;;;;;;;5.23;100.00;93470.31;2098241;28;20020;-81
2022/05/08 04:20:39;;;;;;;10.50;9.45;;;;;;;5.29;100.00;93471.47;2090157;28;20117;-81
2022/05/08 04:21:40;;;;;;;11.73;10.60;;;;;;;5.13;100.00;93460.41;2099935;28;20064;-81
2022/05/08 04:24:18;;;;;;;11.02;9.93;;;;;;;5.22;100.00;93472.22;2117658;27;20027;-80
2022/05/08 04:25:19;;;;;;;10.57;9.68;;;;;;;5.20;100.00;93471.06;2110915;27;20028;-81
2022/05/08 04:26:20;;;;;;;10.90;9.90;;;;;;;5.21;100.00;93467.25;2122844;27;20046;-81
2022/05/08 04:27:21;;;;;;;11.68;10.57;;;;;;;5.26;100.00;93462.34;2123586;27;20023;-80
2022/05/08 04:28:22;;;;;;;10.98;9.98;;;;;;;5.21;100.00;93468.03;2106821;28;20019;-81
2022/05/08 04:29:23;;;;;;;11.40;10.30;;;;;;;5.26;100.00;93467.66;2106707;28;20587;-82
2022/05/08 04:30:24;;;;;;;11.45;10.43;;;;;;;5.33;100.00;93466.94;2099904;28;20046;-81
2022/05/08 04:31:25;;;;;;;12.25;11.15;;;;;;;5.34;100.00;93465.81;2098189;28;20424;-81
2022/05/08 04:32:26;;;;;;;11.15;10.13;;;;;;;5.26;100.00;93467.66;2098063;28;20020;-81
2022/05/08 04:33:27;;;;;;;11.85;10.75;;;;;;;5.30;100.00;93473.72;2113059;28;20721;-82
2022/05/08 04:34:28;;;;;;;11.02;10.10;;;;;;;5.15;100.00;93469.53;2115004;28;20034;-83
2022/05/08 04:35:29;;;;;;;11.90;10.57;;;;;;;5.15;100.00;93466.88;2097870;28;20499;-82
2022/05/08 04:36:32;;;;;;;11.05;9.98;;;;;;;5.24;100.00;93469.19;2090289;28;20359;-80
2022/05/08 04:37:33;;;;;;;10.63;9.63;;;;;;;5.32;100.00;93469.97;2089827;28;20444;-82
2022/05/08 04:38:34;;;;;;;11.13;10.00;;;;;;;5.18;100.00;93473.28;2089729;28;20036;-81
2022/05/08 04:39:35;;;;;;;10.57;9.65;;;;;;;5.13;100.00;93468.34;2094290;28;20024;-81
2022/05/08 04:40:37;;;;;;;11.48;10.38;;;;;;;5.44;100.00;93477.56;2106736;28;20111;-82
2022/05/08 04:41:37;;;;;;;11.50;9.98;;;;;;;5.15;100.00;93466.13;2106365;28;20073;-82
2022/05/08 04:42:39;;;;;;;11.27;10.18;;;;;;;5.09;100.00;93471.00;2097738;28;20032;-82
2022/05/08 04:43:40;;;;;;;10.82;9.82;;;;;;;5.21;100.00;93475.22;2098445;28;20021;-82
2022/05/08 04:44:41;;;;;;;11.45;10.25;;;;;;;5.28;100.00;93469.94;2098254;28;20020;-81
2022/05/08 04:45:42;;;;;;;11.75;10.60;;;;;;;5.22;100.00;93474.06;2106519;28;20496;-82
2022/05/08 04:46:43;;;;;;;12.40;11.30;;;;;;;5.18;100.00;93463.47;2098116;28;20413;-81
2022/05/08 04:47:44;;;;;;;13.02;11.25;;;;;;;5.18;100.00;93474.09;2098089;28;20043;-82
2022/05/08 04:48:45;;;;;;;11.73;10.63;;;;;;;5.18;100.00;93473.28;2106589;28;20459;-81
2022/05/08 04:49:46;;;;;;;12.38;11.18;;;;;;;5.32;100.00;93477.91;2105942;28;20020;-83
2022/05/08 04:50:47;;;;;;;11.52;10.52;;;;;;;5.29;100.00;93477.53;2097642;28;20563;-81
2022/05/08 04:51:48;;;;;;;13.10;10.75;;;;;;;5.29;100.00;93480.16;2098394;28;20365;-82
2022/05/08 04:52:49;;;;;;;12.07;10.95;;;;;;;5.28;100.00;93476.00;2097920;28;20379;-81
2022/05/08 04:53:50;;;;;;;11.35;10.32;;;;;;;5.25;100.00;93482.03;2106374;28;20028;-81